Ana Sayfa
METAR-TAF:

METAR-TAF

Havaalanları :

Václav Havel Havalimanı

Prag, Çek Cumhuriyeti

Enlem: 50-06N, Boylam: 014-15E, yükseklik: 365 m

Güncel hava durumu gözlemi

Rapor saat 13:00 UTC de 1 saat ve 14 dakika önce yapıldı.
Rüzgar güneydan 6 kt, güneydoğu ve güneybatı arasında değişken
Sıcaklık 15°C
Nem 29%
Basınç 1033 hPa
Görüş mesafesi 10 km veya daha fazla
1500 m altında bulut yok ve kümülonimbus yok

METAR: LKPR 261300Z 18006KT 140V220 CAVOK 15/M03 Q1033 NOSIG

Saat: 16:14 (14:14 UTC)

Tahmin

Rapor saat 11:00 UTC de 3 saat ve 14 dakika önce yapıldı.
Ayın 26'si saat 12 UTC'den ayın 27'si saat 18 UTC'ye kadar geçerli Tahmin
Rüzgar güney/güneybatıdan 8 kt
Görüş mesafesi 10 km veya daha fazla
1500 m altında bulut yok ve kümülonimbus yok
Geçici
ayın 26'si saat 23 UTC'den ayın 27'si saat 04 UTC'ye kadar
4000 ft yükseklikte parçalı bulutlu

TAF: LKPR 261100Z 2612/2718 21008KT CAVOK TEMPO 2623/2704 SCT040

4.000'den fazla havaalanı için hava durumu gözlemleri ve tahminleri (METAR ve TAF raporları).

Kullanılabilir istasyonlar harita üzerinde sarı ve kırmızı noktalarla gösterilir.

İstasyonun adını görmek için fareyi noktanın üzerinde gezdirin.

Sonrasında hava gözlem ve tahminlerini görmek için tıklayın.

Haritayı değiştirmek için: yaklaştırmak için siyah artı işaretli yeşil düğmeye ve uzaklaştırmak için de eksi işaretli düğmeye hızla tıklayın; bitişik haritalar için yeşil okları kullanın.


METAR-TAF: